createdAt,value
2022-08-26T00:01:19.205Z,16.91
2022-08-26T00:03:56.476Z,16.88
2022-08-26T00:06:23.132Z,16.96
2022-08-26T00:08:49.680Z,16.83
2022-08-26T00:11:16.313Z,16.88
2022-08-26T00:13:54.605Z,16.99
2022-08-26T00:16:21.648Z,16.92
2022-08-26T00:18:48.179Z,16.86
2022-08-26T00:21:14.666Z,16.82
2022-08-26T00:23:41.228Z,16.72
2022-08-26T00:26:08.438Z,16.65
2022-08-26T00:28:37.789Z,16.65
2022-08-26T00:31:04.574Z,16.81
2022-08-26T00:33:33.615Z,16.79
2022-08-26T00:36:01.670Z,16.67
2022-08-26T00:38:29.313Z,16.80
2022-08-26T00:40:57.506Z,16.85
2022-08-26T00:43:25.435Z,16.94
2022-08-26T00:46:01.039Z,17.00
2022-08-26T00:48:32.444Z,16.95
2022-08-26T00:51:05.655Z,16.94
2022-08-26T00:53:36.826Z,16.96
2022-08-26T00:56:13.705Z,17.08
2022-08-26T00:58:43.039Z,17.03
2022-08-26T01:01:11.413Z,17.09
2022-08-26T01:03:38.603Z,17.10
2022-08-26T01:06:12.602Z,17.05
2022-08-26T01:08:40.168Z,17.02
2022-08-26T01:11:08.285Z,16.95
2022-08-26T01:13:36.956Z,17.06
2022-08-26T01:16:06.200Z,17.16
2022-08-26T01:18:33.429Z,17.00
2022-08-26T01:21:30.684Z,17.05
2022-08-26T01:23:58.750Z,17.03
2022-08-26T01:26:30.253Z,17.09
2022-08-26T01:29:00.191Z,16.90
2022-08-26T01:31:31.591Z,16.85
2022-08-26T01:34:04.238Z,16.73
2022-08-26T01:36:31.195Z,16.75
2022-08-26T01:38:58.122Z,16.72
2022-08-26T01:41:27.287Z,16.60
2022-08-26T01:43:57.199Z,16.53
2022-08-26T01:46:26.774Z,16.52
2022-08-26T01:48:55.269Z,16.38
2022-08-26T01:51:24.385Z,16.35
2022-08-26T01:53:51.177Z,16.29
2022-08-26T01:56:19.284Z,16.38
2022-08-26T01:58:52.724Z,16.38
2022-08-26T02:01:20.492Z,16.33
2022-08-26T02:04:05.304Z,16.26
2022-08-26T02:06:32.996Z,16.29
2022-08-26T02:09:02.884Z,16.23
2022-08-26T02:11:31.115Z,16.41
2022-08-26T02:14:03.824Z,16.21
2022-08-26T02:16:36.773Z,16.09
2022-08-26T02:19:04.722Z,16.02
2022-08-26T02:21:33.791Z,15.99
2022-08-26T02:24:13.177Z,16.07
2022-08-26T02:26:40.755Z,16.18
2022-08-26T02:29:20.149Z,16.10
2022-08-26T02:31:48.531Z,16.05
2022-08-26T02:34:19.554Z,15.99
2022-08-26T02:36:46.433Z,15.93
2022-08-26T02:39:15.050Z,15.89
2022-08-26T02:41:46.905Z,15.85
2022-08-26T02:44:14.638Z,15.82
2022-08-26T02:46:41.866Z,15.81
2022-08-26T02:49:13.959Z,15.79
2022-08-26T02:51:40.643Z,15.69
2022-08-26T02:54:09.655Z,15.77
2022-08-26T02:56:36.281Z,15.83
2022-08-26T02:59:02.933Z,15.75
2022-08-26T03:01:34.291Z,15.83
2022-08-26T03:04:02.846Z,15.92
2022-08-26T03:06:29.593Z,15.90
2022-08-26T03:08:56.430Z,15.87
2022-08-26T03:11:23.880Z,15.86
2022-08-26T03:13:52.298Z,15.82
2022-08-26T03:16:20.704Z,15.80
2022-08-26T03:18:52.441Z,15.78
2022-08-26T03:21:19.984Z,15.79
2022-08-26T03:23:46.936Z,15.77
2022-08-26T03:26:14.830Z,15.81
2022-08-26T03:29:01.825Z,15.90
2022-08-26T03:31:29.915Z,15.90
2022-08-26T03:33:59.682Z,15.84
2022-08-26T03:36:27.445Z,15.88
2022-08-26T03:38:54.436Z,15.84
2022-08-26T03:41:21.397Z,15.81
2022-08-26T03:43:50.733Z,15.91
2022-08-26T03:46:20.099Z,15.87
2022-08-26T03:48:47.759Z,15.88
2022-08-26T03:51:18.273Z,15.91
2022-08-26T03:53:46.401Z,15.80
2022-08-26T03:56:12.905Z,15.78
2022-08-26T03:58:39.554Z,15.74
2022-08-26T04:01:09.511Z,15.70
2022-08-26T04:03:54.871Z,15.79
2022-08-26T04:06:21.812Z,15.77
2022-08-26T04:08:48.470Z,15.74
2022-08-26T04:11:20.677Z,15.74
2022-08-26T04:13:48.594Z,15.63
2022-08-26T04:16:17.427Z,15.67
2022-08-26T04:18:46.838Z,15.64
2022-08-26T04:21:15.282Z,15.66
2022-08-26T04:23:47.648Z,15.71
2022-08-26T04:26:15.192Z,15.67
2022-08-26T04:28:41.696Z,15.74
2022-08-26T04:31:12.365Z,15.65
2022-08-26T04:33:41.903Z,15.57
2022-08-26T04:36:09.230Z,15.62
2022-08-26T04:38:35.913Z,15.59
2022-08-26T04:41:03.377Z,15.50
2022-08-26T04:43:32.127Z,15.58
2022-08-26T04:46:01.905Z,15.60
2022-08-26T04:48:32.989Z,15.68
2022-08-26T04:51:00.385Z,15.62
2022-08-26T04:53:28.266Z,15.59
2022-08-26T04:55:55.416Z,15.63
2022-08-26T04:58:23.409Z,15.56
2022-08-26T05:00:52.873Z,15.61
2022-08-26T05:03:20.953Z,15.64
2022-08-26T05:05:50.151Z,15.74
2022-08-26T05:08:18.989Z,15.71
2022-08-26T05:10:56.269Z,15.77
2022-08-26T05:13:26.167Z,15.76
2022-08-26T05:15:52.864Z,15.79
2022-08-26T05:18:23.991Z,15.72
2022-08-26T05:20:54.028Z,15.70
2022-08-26T05:23:22.884Z,15.61
2022-08-26T05:25:54.700Z,15.72
2022-08-26T05:28:23.740Z,15.74
2022-08-26T05:30:50.529Z,15.80
2022-08-26T05:33:18.123Z,15.71
2022-08-26T05:35:46.419Z,15.85
2022-08-26T05:38:16.248Z,16.06
2022-08-26T05:40:45.657Z,15.89
2022-08-26T05:43:13.471Z,15.71
2022-08-26T05:45:46.068Z,15.66
2022-08-26T05:48:13.995Z,15.76
2022-08-26T05:50:42.774Z,15.86
2022-08-26T05:53:10.898Z,15.92
2022-08-26T05:55:53.951Z,16.01
2022-08-26T05:58:21.886Z,16.03
2022-08-26T06:01:05.819Z,15.98
2022-08-26T06:03:35.962Z,16.20
2022-08-26T06:06:08.063Z,16.15
2022-08-26T06:08:35.694Z,16.19
2022-08-26T06:11:06.032Z,16.37
2022-08-26T06:13:34.261Z,16.57
2022-08-26T06:16:05.601Z,16.54
2022-08-26T06:18:36.543Z,16.48
2022-08-26T06:21:14.901Z,16.58
2022-08-26T06:24:01.469Z,16.76
2022-08-26T06:26:28.338Z,17.21
2022-08-26T06:28:55.505Z,17.38
2022-08-26T06:31:23.724Z,17.43
2022-08-26T06:33:51.098Z,17.33
2022-08-26T06:36:20.756Z,17.45
2022-08-26T06:38:48.899Z,17.35
2022-08-26T06:41:16.204Z,17.55
2022-08-26T06:43:42.722Z,17.70
2022-08-26T06:46:12.034Z,17.35
2022-08-26T06:48:39.761Z,17.18
2022-08-26T06:51:13.834Z,17.10
2022-08-26T06:53:42.566Z,17.15
2022-08-26T06:56:11.916Z,17.08
2022-08-26T06:58:40.578Z,17.01
2022-08-26T07:01:24.598Z,17.10
2022-08-26T07:03:54.245Z,17.12
2022-08-26T07:06:25.245Z,17.32
2022-08-26T07:08:53.929Z,17.36
2022-08-26T07:11:21.062Z,17.34
2022-08-26T07:13:47.967Z,17.43
2022-08-26T07:16:17.737Z,17.65
2022-08-26T07:18:44.782Z,17.70
2022-08-26T07:21:14.822Z,17.67
2022-08-26T07:23:41.589Z,17.79
2022-08-26T07:26:11.736Z,17.96
2022-08-26T07:28:38.485Z,17.89
2022-08-26T07:31:11.073Z,18.03
2022-08-26T07:33:39.918Z,18.14
2022-08-26T07:36:08.819Z,18.14
2022-08-26T07:38:36.939Z,18.25
2022-08-26T07:41:03.990Z,18.33
2022-08-26T07:43:31.053Z,18.26
2022-08-26T07:45:57.987Z,18.29
2022-08-26T07:48:24.559Z,18.36
2022-08-26T07:50:53.725Z,18.21
2022-08-26T07:53:21.881Z,18.14
2022-08-26T07:55:51.189Z,18.14
2022-08-26T07:58:19.088Z,18.38
2022-08-26T08:00:46.564Z,18.33
2022-08-26T08:03:15.064Z,18.42
2022-08-26T08:05:42.397Z,18.23
2022-08-26T08:08:21.865Z,18.31
2022-08-26T08:10:55.733Z,18.45
2022-08-26T08:13:23.539Z,18.44
2022-08-26T08:15:50.532Z,18.63
2022-08-26T08:18:17.827Z,18.80
2022-08-26T08:21:04.745Z,19.06
2022-08-26T08:23:32.818Z,19.62
2022-08-26T08:26:09.297Z,19.73
2022-08-26T08:28:37.210Z,19.59
2022-08-26T08:31:04.530Z,20.02
2022-08-26T08:33:33.690Z,20.39
2022-08-26T08:36:01.030Z,20.50
2022-08-26T08:38:29.303Z,20.47
2022-08-26T08:40:55.968Z,20.50
2022-08-26T08:43:25.466Z,20.69
2022-08-26T08:45:57.686Z,20.54
2022-08-26T08:48:32.101Z,20.50
2022-08-26T08:51:01.902Z,20.25
2022-08-26T08:53:33.853Z,20.50
2022-08-26T08:56:11.660Z,20.71
2022-08-26T08:58:51.458Z,20.81
2022-08-26T09:01:48.581Z,20.88
2022-08-26T09:04:46.671Z,20.92
2022-08-26T09:07:19.662Z,20.63
2022-08-26T09:09:52.230Z,20.72
2022-08-26T09:12:29.308Z,20.61
2022-08-26T09:15:16.060Z,20.73
2022-08-26T09:17:45.573Z,20.73
2022-08-26T09:20:18.182Z,21.35
2022-08-26T09:22:44.786Z,21.34
2022-08-26T09:25:13.629Z,21.22
2022-08-26T09:27:44.863Z,21.00
2022-08-26T09:30:34.869Z,20.91
2022-08-26T09:33:10.205Z,20.92
2022-08-26T09:35:39.709Z,20.83
2022-08-26T09:38:27.916Z,21.09
2022-08-26T09:40:59.377Z,21.38
2022-08-26T09:43:28.423Z,21.87
2022-08-26T09:46:12.905Z,22.17
2022-08-26T09:48:41.125Z,22.50
2022-08-26T09:51:31.417Z,23.01
2022-08-26T09:54:03.195Z,22.70
2022-08-26T09:56:33.929Z,22.62
2022-08-26T09:59:01.735Z,22.07
2022-08-26T10:01:45.493Z,22.12
2022-08-26T10:04:23.028Z,22.57
2022-08-26T10:07:00.193Z,22.81
2022-08-26T10:09:30.349Z,22.73
2022-08-26T10:12:02.217Z,22.98
2022-08-26T10:14:35.957Z,22.97
2022-08-26T10:17:21.686Z,23.29
2022-08-26T10:19:57.735Z,23.36
2022-08-26T10:22:40.514Z,23.49
2022-08-26T10:25:13.020Z,23.61
2022-08-26T10:27:50.962Z,23.84
2022-08-26T10:30:22.992Z,22.99
2022-08-26T10:32:55.457Z,22.89
2022-08-26T10:35:22.197Z,22.87
2022-08-26T10:37:53.550Z,23.32
2022-08-26T10:40:35.934Z,23.84
2022-08-26T10:43:11.376Z,23.93
2022-08-26T10:45:50.513Z,24.20
2022-08-26T10:48:35.229Z,24.43
2022-08-26T10:51:04.215Z,24.46
2022-08-26T10:53:55.814Z,24.82
2022-08-26T10:56:25.468Z,24.95
2022-08-26T10:59:29.763Z,24.98
2022-08-26T11:02:16.055Z,25.09
2022-08-26T11:04:55.333Z,25.24
2022-08-26T11:07:40.832Z,25.38
2022-08-26T11:10:16.468Z,25.57
2022-08-26T11:12:43.051Z,25.42
2022-08-26T11:15:13.599Z,25.68
2022-08-26T11:17:46.254Z,25.89
2022-08-26T11:20:31.995Z,26.17
2022-08-26T11:23:14.506Z,25.97
2022-08-26T11:25:57.016Z,25.51
2022-08-26T11:28:33.392Z,25.54
2022-08-26T11:31:00.334Z,25.46
2022-08-26T11:33:45.142Z,25.93
2022-08-26T11:36:33.394Z,26.47
2022-08-26T11:39:02.149Z,26.99
2022-08-26T11:41:31.370Z,26.62
2022-08-26T11:43:59.456Z,26.97
2022-08-26T11:46:37.496Z,27.17
2022-08-26T11:49:07.042Z,27.38
2022-08-26T11:51:40.078Z,26.67
2022-08-26T11:54:30.567Z,25.97
2022-08-26T11:57:07.949Z,25.57
2022-08-26T11:59:40.356Z,25.36
2022-08-26T12:02:17.924Z,25.19
2022-08-26T12:04:48.782Z,26.71
2022-08-26T12:07:16.462Z,27.05
2022-08-26T12:10:02.295Z,27.25
2022-08-26T12:12:36.155Z,27.45
2022-08-26T12:15:12.900Z,27.15
2022-08-26T12:17:40.793Z,27.72
2022-08-26T12:20:30.345Z,28.18
2022-08-26T12:22:59.302Z,28.56
2022-08-26T12:25:26.181Z,28.23
2022-08-26T12:28:03.254Z,28.07
2022-08-26T12:30:31.152Z,28.17
2022-08-26T12:33:22.161Z,28.83
2022-08-26T12:35:54.762Z,29.22
2022-08-26T12:38:24.949Z,29.66
2022-08-26T12:40:52.029Z,28.85
2022-08-26T12:43:42.078Z,28.54
2022-08-26T12:46:12.834Z,28.33
2022-08-26T12:48:44.072Z,29.12
2022-08-26T12:51:25.922Z,29.33
2022-08-26T12:53:53.501Z,28.79
2022-08-26T12:56:29.149Z,29.80
2022-08-26T12:59:25.033Z,29.93
2022-08-26T13:01:53.512Z,30.54
2022-08-26T13:04:42.741Z,31.47
2022-08-26T13:07:21.506Z,31.86
2022-08-26T13:09:49.060Z,31.03
2022-08-26T13:12:32.842Z,35.26
2022-08-26T13:15:00.995Z,44.63
2022-08-26T13:17:29.673Z,46.59
2022-08-26T13:20:00.043Z,39.28
2022-08-26T13:22:29.607Z,34.89
2022-08-26T13:24:57.083Z,32.76
2022-08-26T13:27:26.206Z,32.02
2022-08-26T13:29:53.864Z,32.34
2022-08-26T13:32:22.479Z,31.26
2022-08-26T13:34:54.387Z,31.50
2022-08-26T13:37:22.341Z,32.41
2022-08-26T13:40:00.773Z,30.92
2022-08-26T13:42:27.474Z,30.08
2022-08-26T13:44:57.935Z,30.15
2022-08-26T13:47:26.103Z,29.79
2022-08-26T13:49:54.678Z,29.22
2022-08-26T13:52:29.182Z,29.34
2022-08-26T13:54:57.542Z,29.65
2022-08-26T13:57:24.721Z,29.12
2022-08-26T13:59:53.886Z,28.60
2022-08-26T14:02:20.438Z,28.55
2022-08-26T14:04:46.941Z,28.73
2022-08-26T14:07:13.535Z,29.02
2022-08-26T14:09:40.293Z,29.06
2022-08-26T14:12:06.951Z,28.52
2022-08-26T14:14:33.478Z,28.66
2022-08-26T14:17:00.846Z,28.43
2022-08-26T14:19:30.034Z,28.18
2022-08-26T14:21:57.259Z,27.88
2022-08-26T14:24:23.889Z,27.58
2022-08-26T14:26:50.410Z,27.91
2022-08-26T14:29:17.110Z,27.97
2022-08-26T14:31:44.147Z,27.44
2022-08-26T14:34:13.100Z,27.00
2022-08-26T14:36:39.606Z,27.06
2022-08-26T14:39:09.711Z,26.97
2022-08-26T14:41:54.489Z,27.06
2022-08-26T14:44:24.757Z,27.16
2022-08-26T14:46:52.908Z,27.48
2022-08-26T14:49:20.453Z,27.52
2022-08-26T14:51:47.300Z,27.16
2022-08-26T14:54:16.211Z,27.19
2022-08-26T14:56:47.095Z,27.33
2022-08-26T14:59:17.445Z,27.16
2022-08-26T15:01:45.212Z,27.38
2022-08-26T15:04:11.933Z,27.27
2022-08-26T15:06:39.002Z,27.28
2022-08-26T15:09:06.270Z,27.01
2022-08-26T15:11:33.103Z,27.11
2022-08-26T15:13:59.969Z,27.22
2022-08-26T15:16:28.676Z,27.31
2022-08-26T15:18:55.918Z,27.32
2022-08-26T15:21:23.292Z,27.42
2022-08-26T15:23:51.094Z,27.17
2022-08-26T15:26:18.231Z,27.37
2022-08-26T15:28:45.228Z,27.40
2022-08-26T15:31:12.049Z,27.41
2022-08-26T15:33:39.245Z,27.67
2022-08-26T15:36:07.364Z,27.85
2022-08-26T15:38:36.651Z,27.44
2022-08-26T15:41:05.038Z,27.25
2022-08-26T15:43:32.255Z,27.25
2022-08-26T15:45:58.930Z,27.40
2022-08-26T15:48:25.592Z,27.53
2022-08-26T15:50:58.975Z,27.51
2022-08-26T15:53:26.816Z,27.49
2022-08-26T15:55:55.185Z,27.25
2022-08-26T15:58:24.883Z,27.18
2022-08-26T16:00:54.507Z,26.80
2022-08-26T16:03:21.190Z,26.85
2022-08-26T16:05:48.339Z,26.75
2022-08-26T16:08:15.420Z,26.62
2022-08-26T16:10:50.056Z,26.54
2022-08-26T16:13:19.296Z,26.36
2022-08-26T16:15:47.680Z,26.11
2022-08-26T16:18:15.575Z,26.17
2022-08-26T16:21:02.873Z,26.24
2022-08-26T16:23:39.753Z,26.54
2022-08-26T16:26:10.892Z,26.57
2022-08-26T16:28:38.428Z,26.59
2022-08-26T16:31:06.408Z,26.61
2022-08-26T16:33:33.261Z,26.67
2022-08-26T16:35:59.821Z,27.12
2022-08-26T16:38:26.467Z,27.49
2022-08-26T16:40:53.097Z,27.24
2022-08-26T16:43:19.631Z,27.03
2022-08-26T16:45:46.269Z,26.70
2022-08-26T16:48:12.894Z,27.33
2022-08-26T16:50:40.766Z,28.26
2022-08-26T16:53:07.900Z,27.33
2022-08-26T16:55:35.697Z,28.94
2022-08-26T16:58:02.283Z,29.57
2022-08-26T17:00:31.508Z,29.28
2022-08-26T17:03:00.005Z,32.14
2022-08-26T17:05:27.806Z,32.81
2022-08-26T17:07:55.826Z,32.93
2022-08-26T17:10:23.665Z,33.52
2022-08-26T17:12:50.701Z,33.34
2022-08-26T17:15:17.813Z,33.22
2022-08-26T17:17:44.581Z,30.72
2022-08-26T17:20:14.274Z,31.93
2022-08-26T17:22:43.880Z,32.44
2022-08-26T17:25:24.136Z,31.93
2022-08-26T17:27:50.861Z,31.18
2022-08-26T17:30:17.952Z,30.73
2022-08-26T17:32:45.217Z,30.39
2022-08-26T17:35:13.352Z,28.16
2022-08-26T17:37:40.234Z,27.42
2022-08-26T17:40:10.815Z,26.55
2022-08-26T17:42:39.150Z,26.50
2022-08-26T17:45:06.675Z,26.92
2022-08-26T17:47:34.085Z,26.77
2022-08-26T17:50:01.378Z,26.09
2022-08-26T17:52:28.784Z,25.91
2022-08-26T17:54:59.001Z,25.66
2022-08-26T17:57:26.327Z,25.70
2022-08-26T17:59:54.189Z,25.48
2022-08-26T18:02:21.160Z,25.16
2022-08-26T18:04:48.025Z,25.00
2022-08-26T18:07:15.100Z,25.14
2022-08-26T18:09:42.042Z,25.17
2022-08-26T18:12:09.078Z,25.29
2022-08-26T18:14:36.257Z,25.07
2022-08-26T18:17:03.549Z,25.27
2022-08-26T18:19:30.181Z,25.26
2022-08-26T18:21:57.518Z,24.83
2022-08-26T18:24:24.525Z,24.91
2022-08-26T18:26:51.138Z,24.68
2022-08-26T18:29:19.482Z,24.63
2022-08-26T18:31:46.528Z,24.49
2022-08-26T18:34:15.376Z,24.47
2022-08-26T18:36:43.834Z,24.41
2022-08-26T18:39:12.267Z,24.14
2022-08-26T18:41:45.769Z,24.11
2022-08-26T18:44:14.193Z,23.80
2022-08-26T18:46:41.319Z,23.57
2022-08-26T18:49:08.424Z,23.54
2022-08-26T18:51:35.586Z,23.21
2022-08-26T18:54:04.766Z,23.16
2022-08-26T18:56:34.606Z,23.23
2022-08-26T18:59:01.194Z,23.10
2022-08-26T19:01:29.707Z,23.00
2022-08-26T19:03:58.156Z,22.84
2022-08-26T19:06:25.929Z,22.81
2022-08-26T19:08:53.360Z,22.72
2022-08-26T19:11:31.353Z,22.63
2022-08-26T19:14:00.059Z,22.51
2022-08-26T19:16:27.356Z,22.45
2022-08-26T19:18:54.839Z,22.27
2022-08-26T19:21:22.782Z,22.20
2022-08-26T19:23:50.307Z,22.20
2022-08-26T19:26:17.696Z,22.27
2022-08-26T19:28:44.339Z,22.10
2022-08-26T19:31:12.268Z,22.15
2022-08-26T19:33:41.719Z,22.13
2022-08-26T19:36:14.850Z,21.97
2022-08-26T19:38:42.760Z,21.88
2022-08-26T19:41:18.962Z,21.78
2022-08-26T19:43:46.251Z,21.82
2022-08-26T19:46:17.308Z,21.90
2022-08-26T19:48:44.636Z,21.80
2022-08-26T19:51:24.433Z,21.75
2022-08-26T19:53:53.051Z,21.66
2022-08-26T19:56:20.594Z,21.75
2022-08-26T19:58:47.590Z,21.75
2022-08-26T20:01:15.255Z,21.58
2022-08-26T20:03:42.464Z,21.42
2022-08-26T20:06:11.483Z,21.43
2022-08-26T20:08:40.023Z,21.37
2022-08-26T20:11:10.604Z,21.47
2022-08-26T20:13:37.782Z,21.45
2022-08-26T20:16:04.925Z,21.69
2022-08-26T20:18:50.670Z,21.96
2022-08-26T20:21:26.416Z,22.02
2022-08-26T20:23:58.486Z,21.88
2022-08-26T20:26:29.954Z,21.86
2022-08-26T20:28:56.703Z,21.86
2022-08-26T20:31:24.321Z,21.97
2022-08-26T20:33:51.602Z,21.77
2022-08-26T20:36:20.616Z,21.75
2022-08-26T20:38:48.445Z,21.75
2022-08-26T20:41:16.025Z,21.70
2022-08-26T20:43:43.111Z,21.51
2022-08-26T20:46:17.941Z,21.40
2022-08-26T20:48:48.063Z,21.35
2022-08-26T20:51:15.472Z,21.30
2022-08-26T20:53:42.559Z,21.50
2022-08-26T20:56:10.657Z,21.45
2022-08-26T20:58:38.375Z,21.39
2022-08-26T21:01:08.022Z,21.37
2022-08-26T21:03:35.876Z,21.23
2022-08-26T21:06:03.525Z,21.13
2022-08-26T21:08:30.022Z,21.17
2022-08-26T21:10:59.769Z,21.18
2022-08-26T21:13:26.249Z,21.16
2022-08-26T21:15:56.295Z,21.17
2022-08-26T21:18:22.822Z,21.07
2022-08-26T21:20:49.534Z,20.95
2022-08-26T21:23:16.029Z,20.96
2022-08-26T21:25:42.586Z,21.06
2022-08-26T21:28:09.308Z,21.13
2022-08-26T21:30:40.630Z,21.00
2022-08-26T21:33:07.827Z,20.97
2022-08-26T21:35:34.707Z,20.90
2022-08-26T21:38:01.411Z,20.84
2022-08-26T21:40:28.183Z,20.88
2022-08-26T21:42:54.747Z,20.79
2022-08-26T21:45:21.639Z,20.79
2022-08-26T21:47:48.354Z,20.87
2022-08-26T21:50:14.945Z,20.79
2022-08-26T21:52:41.497Z,20.62
2022-08-26T21:55:09.016Z,20.59
2022-08-26T21:57:36.202Z,20.53
2022-08-26T22:00:04.702Z,20.42
2022-08-26T22:02:31.446Z,20.47
2022-08-26T22:04:58.035Z,20.39
2022-08-26T22:07:24.740Z,20.35
2022-08-26T22:09:51.323Z,20.44
2022-08-26T22:12:18.418Z,20.41
2022-08-26T22:14:45.697Z,20.44
2022-08-26T22:17:12.637Z,20.44
2022-08-26T22:19:46.372Z,20.39
2022-08-26T22:22:14.125Z,20.31
2022-08-26T22:24:40.617Z,20.28
2022-08-26T22:27:07.231Z,20.22
2022-08-26T22:29:34.310Z,20.14
2022-08-26T22:32:01.553Z,20.06
2022-08-26T22:34:28.306Z,20.16
2022-08-26T22:36:55.041Z,20.10
2022-08-26T22:39:23.540Z,19.76
2022-08-26T22:41:50.690Z,19.64
2022-08-26T22:44:19.114Z,19.50
2022-08-26T22:46:46.741Z,19.32
2022-08-26T22:49:16.327Z,19.25
2022-08-26T22:51:44.183Z,19.13
2022-08-26T22:54:10.820Z,19.01
2022-08-26T22:56:38.070Z,19.06
2022-08-26T22:59:06.940Z,18.95
2022-08-26T23:01:39.091Z,18.87
2022-08-26T23:04:07.424Z,18.79
2022-08-26T23:06:38.098Z,18.72
2022-08-26T23:09:06.447Z,18.69
2022-08-26T23:11:33.436Z,18.77
2022-08-26T23:14:02.905Z,18.73
2022-08-26T23:16:39.208Z,18.69
2022-08-26T23:19:07.394Z,18.73
2022-08-26T23:21:34.216Z,18.83
2022-08-26T23:24:02.300Z,18.70
2022-08-26T23:26:28.850Z,18.67
2022-08-26T23:28:55.661Z,18.65
2022-08-26T23:31:22.323Z,18.60
2022-08-26T23:34:07.313Z,18.67
2022-08-26T23:36:35.090Z,18.71
2022-08-26T23:39:04.270Z,18.80
2022-08-26T23:41:30.992Z,18.63
2022-08-26T23:44:02.838Z,18.71
2022-08-26T23:46:31.145Z,18.80
2022-08-26T23:48:57.666Z,18.76
2022-08-26T23:51:43.121Z,18.68
2022-08-26T23:54:12.674Z,18.66
2022-08-26T23:56:40.017Z,18.64
2022-08-26T23:59:07.425Z,18.71
